nws-alerts: Checking more than four warning/county codes can delay the loading of your pages. You should use a cron job to get the data.
EllijayWeather Station Historical Data
Daily Summary for May 5, 2019 Units:  Metric    English   Both
Daily Weekly Monthly Yearly Custom
  High: Low: Average:
Temperature: 23.2 °C 13.1 °C 18.4 °C
Dew Point: 18.1 °C 12.3 °C 16.2 °C
Humidity: 99% 63% 88%
Wind Speed: 11.1km/h 0km/h 0.6km/h
Wind Gust: 17.7km/h - -
Wind- - SSW
Pressure: 1012.8 hPa 1004.6 hPa -
Precipitation: 9.14 mm    
Historical Graphs
 
 
Tabular Data for May 5, 2019
Time Temperature Dew Point Pressure Wind Wind Speed Wind Gust Humidity Rainfall Rate (Hourly) solar
00:04 17.8 °C 17.3 °C 1007.7 hPa Calm     97% 0.76 mm meteobridge W/m2
00:09 17.8 °C 17.5 °C 1007.7 hPa Calm     98% 0.76 mm meteobridge W/m2
00:14 17.8 °C 17.5 °C 1007.7 hPa Calm     98% 0.76 mm meteobridge W/m2
00:19 17.7 °C 17.4 °C 1007.7 hPa Calm     98% 0.76 mm meteobridge W/m2
00:24 17.7 °C 17.4 °C 1008 hPa Calm   1.6 km/h 98% 1.02 mm meteobridge W/m2
00:29 17.7 °C 17.4 °C 1008 hPa Calm     98% 0.76 mm meteobridge W/m2
00:34 17.6 °C 17.3 °C 1007.7 hPa Calm     98% 0.76 mm meteobridge W/m2
00:39 17.6 °C 17.3 °C 1008 hPa Calm     98% 1.02 mm meteobridge W/m2
00:44 17.6 °C 17.3 °C 1007.7 hPa Calm     98% 1.02 mm meteobridge W/m2
00:49 17.6 °C 17.3 °C 1007.7 hPa Calm     98% 0.76 mm meteobridge W/m2
00:54 17.5 °C 17.2 °C 1007.7 hPa Calm     98% 1.02 mm meteobridge W/m2
00:59 17.5 °C 17.2 °C 1007.3 hPa Calm     98% 1.02 mm meteobridge W/m2
01:04 17.5 °C 17.2 °C 1007.3 hPa Calm     98% 1.02 mm meteobridge W/m2
01:09 17.5 °C 17.2 °C 1007.3 hPa Calm     98% 1.02 mm meteobridge W/m2
01:14 17.4 °C 17.1 °C 1007.3 hPa Calm     98% 1.02 mm meteobridge W/m2
01:19 17.4 °C 17.1 °C 1007.3 hPa Calm     98% 1.27 mm meteobridge W/m2
01:24 17.3 °C 17 °C 1007.3 hPa Calm     98% 1.02 mm meteobridge W/m2
01:29 17.3 °C 17 °C 1007 hPa Calm     98% 1.02 mm meteobridge W/m2
01:34 17.2 °C 16.9 °C 1007 hPa Calm     98% 1.02 mm meteobridge W/m2
01:39 17.2 °C 16.9 °C 1007 hPa Calm     98% 1.02 mm meteobridge W/m2
01:44 17.1 °C 16.8 °C 1007 hPa Calm     98% 1.02 mm meteobridge W/m2
01:49 17.1 °C 16.8 °C 1007 hPa Calm     98% 1.02 mm meteobridge W/m2
01:54 17.1 °C 16.8 °C 1007 hPa Calm     98% 0.76 mm meteobridge W/m2
01:59 16.9 °C 16.6 °C 1007 hPa Calm     98% 1.02 mm meteobridge W/m2
02:04 16.9 °C 16.6 °C 1007 hPa Calm     98% 1.02 mm meteobridge W/m2
02:09 16.9 °C 16.6 °C 1006.7 hPa Calm     98% 0.76 mm meteobridge W/m2
02:14 16.9 °C 16.6 °C 1006.7 hPa Calm     98% 0.76 mm meteobridge W/m2
02:19 16.9 °C 16.6 °C 1006.3 hPa Calm     98% 0.76 mm meteobridge W/m2
02:24 16.8 °C 16.5 °C 1006.3 hPa Calm     98% 0.76 mm meteobridge W/m2
02:29 16.8 °C 16.5 °C 1006.3 hPa Calm     98% 0.76 mm meteobridge W/m2
02:34 16.8 °C 16.5 °C 1006.3 hPa Calm     98% 0.76 mm meteobridge W/m2
02:39 16.9 °C 16.6 °C 1006.3 hPa Calm     98% 0.76 mm meteobridge W/m2
02:44 16.9 °C 16.6 °C 1006.3 hPa Calm     98% 0.76 mm meteobridge W/m2
02:49 16.9 °C 16.6 °C 1006 hPa Calm     98% 0.76 mm meteobridge W/m2
02:54 16.9 °C 16.6 °C 1006 hPa Calm     98% 0.76 mm meteobridge W/m2
02:59 16.9 °C 16.6 °C 1006 hPa Calm     98% 0.51 mm meteobridge W/m2
03:04 16.9 °C 16.6 °C 1006 hPa Calm     98% 0.51 mm meteobridge W/m2
03:09 17 °C 16.7 °C 1005.6 hPa Calm     98% 0.76 mm meteobridge W/m2
03:14 16.9 °C 16.6 °C 1005.6 hPa Calm     98% 0.76 mm meteobridge W/m2
03:19 17 °C 16.7 °C 1005.6 hPa Calm     98% 0.51 mm meteobridge W/m2
03:24 17.1 °C 16.8 °C 1005.6 hPa Calm     98% 0.51 mm meteobridge W/m2
03:29 17 °C 16.7 °C 1005.6 hPa East 6.4 km/h 6.4 km/h 98% 0.51 mm meteobridge W/m2
03:34 17.2 °C 17 °C 1005.6 hPa Calm     99% 0.76 mm meteobridge W/m2
03:39 17.3 °C 17.1 °C 1005.6 hPa Calm   1.6 km/h 99% 0.51 mm meteobridge W/m2
03:44 17.4 °C 17.2 °C 1005.6 hPa Calm     99% 0.51 mm meteobridge W/m2
03:49 17.4 °C 17.2 °C 1005.3 hPa Calm     99% 0.51 mm meteobridge W/m2
03:54 17.5 °C 17.3 °C 1005.3 hPa Calm   1.6 km/h 99% 0.51 mm meteobridge W/m2
03:59 17.6 °C 17.4 °C 1005.3 hPa Calm     99% 0.51 mm meteobridge W/m2
04:04 17.6 °C 17.3 °C 1005.3 hPa Calm   1.6 km/h 98% 0.76 mm meteobridge W/m2
04:09 17.6 °C 17.3 °C 1005.3 hPa Calm     98% 0.51 mm meteobridge W/m2
04:14 17.6 °C 17.3 °C 1005 hPa Calm     98% 0.51 mm meteobridge W/m2
04:19 17.6 °C 17.3 °C 1005 hPa Calm     98% 0.51 mm meteobridge W/m2
04:24 17.7 °C 17.4 °C 1005 hPa Calm     98% 0.51 mm meteobridge W/m2
04:29 17.7 °C 17.4 °C 1005 hPa Calm     98% 0.76 mm meteobridge W/m2
04:34 17.6 °C 17.3 °C 1005 hPa Calm     98% 0.51 mm meteobridge W/m2
04:39 17.6 °C 17.3 °C 1005 hPa Calm     98% 0.51 mm meteobridge W/m2
04:44 17.6 °C 17.3 °C 1005 hPa Calm     98% 0.51 mm meteobridge W/m2
04:49 17.6 °C 17.3 °C 1005 hPa Calm     98% 0.76 mm meteobridge W/m2
04:54 17.6 °C 17.3 °C 1005 hPa Calm   4.8 km/h 98% 0.76 mm meteobridge W/m2
04:59 17.6 °C 17.3 °C 1005 hPa Calm     98% 0.76 mm meteobridge W/m2
05:04 17.6 °C 17.3 °C 1005 hPa Calm     98% 0.51 mm meteobridge W/m2
05:09 17.6 °C 17.3 °C 1004.6 hPa NNE 1.4 km/h 1.6 km/h 98% 0.51 mm meteobridge W/m2
05:14 17.6 °C 17.3 °C 1004.6 hPa Calm     98% 0.76 mm meteobridge W/m2
05:19 17.6 °C 17.3 °C 1004.6 hPa Calm   1.6 km/h 98% 0.76 mm meteobridge W/m2
05:24 17.6 °C 17.3 °C 1004.6 hPa Calm     98% 0.76 mm meteobridge W/m2
05:29 17.6 °C 17.3 °C 1004.6 hPa Calm     98% 0.51 mm meteobridge W/m2
05:34 17.6 °C 17.3 °C 1005 hPa Calm     98% 0.76 mm meteobridge W/m2
05:39 17.6 °C 17.3 °C 1004.6 hPa Calm     98% 0.76 mm meteobridge W/m2
05:44 17.6 °C 17.3 °C 1004.6 hPa Calm   1.6 km/h 98% 0.76 mm meteobridge W/m2
05:49 17.6 °C 17.3 °C 1004.6 hPa Calm   3.2 km/h 98% 0.76 mm meteobridge W/m2
05:54 17.6 °C 17.3 °C 1004.6 hPa Calm   3.2 km/h 98% 0.76 mm meteobridge W/m2
05:59 17.6 °C 17.3 °C 1004.6 hPa Calm   6.4 km/h 98% 0.76 mm meteobridge W/m2
06:04 17.6 °C 17.3 °C 1004.6 hPa Calm   1.6 km/h 98% 0.76 mm meteobridge W/m2
06:09 17.6 °C 17.3 °C 1004.6 hPa Calm     98% 0.76 mm meteobridge W/m2
06:14 17.7 °C 17.4 °C 1005 hPa Calm   4.8 km/h 98% 0.51 mm meteobridge W/m2
06:19 17.7 °C 17.4 °C 1005 hPa Calm     98% 0.76 mm meteobridge W/m2
06:24 17.7 °C 17.4 °C 1005 hPa Calm   3.2 km/h 98% 0.76 mm meteobridge W/m2
06:29 17.7 °C 17.4 °C 1005.3 hPa Calm     98% 0.76 mm meteobridge W/m2
06:34 17.6 °C 17.3 °C 1005.3 hPa Calm     98% 0.51 mm meteobridge W/m2
06:39 17.6 °C 17.3 °C 1005.3 hPa Calm     98% 0.51 mm meteobridge W/m2
06:44 17.5 °C 17.2 °C 1005.3 hPa Calm     98% 0.76 mm meteobridge W/m2
06:49 17.4 °C 17.1 °C 1005.3 hPa Calm   3.2 km/h 98% 0.76 mm meteobridge W/m2
06:54 17.4 °C 17.1 °C 1005.3 hPa Calm     98% 0.51 mm meteobridge W/m2
06:59 17.3 °C 17 °C 1005.3 hPa Calm     98% 0.51 mm meteobridge W/m2
07:04 17.3 °C 17 °C 1005.3 hPa Calm     98% 0.51 mm meteobridge W/m2
07:09 17.2 °C 16.9 °C 1005.6 hPa Calm     98% 0.51 mm meteobridge W/m2
07:14 17.2 °C 16.9 °C 1006 hPa Calm   6.4 km/h 98% 0.76 mm meteobridge W/m2
07:19 17.1 °C 16.8 °C 1006.3 hPa Calm   6.4 km/h 98% 0.51 mm meteobridge W/m2
07:24 16.9 °C 16.4 °C 1006.3 hPa Calm     97% 0.51 mm meteobridge W/m2
07:29 16.9 °C 16.4 °C 1006.7 hPa Calm     97% 0.51 mm meteobridge W/m2
07:34 16.8 °C 16.3 °C 1006.7 hPa Calm     97% 0.51 mm meteobridge W/m2
07:39 16.7 °C 16.2 °C 1006.7 hPa Calm   1.6 km/h 97% 0.76 mm meteobridge W/m2
07:44 16.7 °C 16.2 °C 1007 hPa Calm     97% 0.51 mm meteobridge W/m2
07:49 16.6 °C 16.1 °C 1007 hPa Calm     97% 0.51 mm meteobridge W/m2
07:54 16.6 °C 16.3 °C 1007 hPa Calm     98% 0.51 mm meteobridge W/m2
07:59 16.6 °C 16.1 °C 1007 hPa Calm     97% 0.51 mm meteobridge W/m2
08:04 16.6 °C 16.3 °C 1007.3 hPa Calm     98% 0.51 mm meteobridge W/m2
08:09 16.6 °C 16.3 °C 1007.3 hPa Calm   4.8 km/h 98% 0.76 mm meteobridge W/m2
08:14 16.6 °C 16.1 °C 1007.3 hPa Calm     97% 0.51 mm meteobridge W/m2
08:19 16.6 °C 16.3 °C 1007.7 hPa Calm     98% 0.51 mm meteobridge W/m2
08:24 16.6 °C 16.3 °C 1007.7 hPa Calm     98% 0.51 mm meteobridge W/m2
08:29 16.7 °C 16.4 °C 1007.7 hPa Calm     98% 0.51 mm meteobridge W/m2
08:34 16.7 °C 16.4 °C 1007.7 hPa Calm     98% 0.51 mm meteobridge W/m2
08:39 16.7 °C 16.4 °C 1008 hPa Calm     98% 0.51 mm meteobridge W/m2
08:44 16.7 °C 16.4 °C 1008 hPa Calm     98% 0.51 mm meteobridge W/m2
08:49 16.7 °C 16.4 °C 1008 hPa Calm     98% 0.51 mm meteobridge W/m2
08:54 16.8 °C 16.3 °C 1008.4 hPa Calm     97% 0.51 mm meteobridge W/m2
08:59 16.8 °C 16.3 °C 1008.4 hPa Calm     97% 0.51 mm meteobridge W/m2
09:04 16.8 °C 16.3 °C 1008.4 hPa Calm   3.2 km/h 97% 0.51 mm meteobridge W/m2
09:09 16.8 °C 16.3 °C 1008.4 hPa Calm   1.6 km/h 97% 0.51 mm meteobridge W/m2
09:14 16.8 °C 16.3 °C 1008.4 hPa Calm   3.2 km/h 97% 0.25 mm meteobridge W/m2
09:19 16.8 °C 16.3 °C 1008.4 hPa NNW 4.7 km/h 4.8 km/h 97% 0.25 mm meteobridge W/m2
09:24 16.8 °C 16.3 °C 1008.4 hPa Calm   3.2 km/h 97% 0.25 mm meteobridge W/m2
09:29 16.8 °C 16.3 °C 1008.4 hPa Calm     97% 0.25 mm meteobridge W/m2
09:34 16.9 °C 16.4 °C 1008.4 hPa Calm   1.6 km/h 97% 0.25 mm meteobridge W/m2
09:39 17.1 °C 16.6 °C 1008.4 hPa Calm   1.6 km/h 97% 0.25 mm meteobridge W/m2
09:44 17.1 °C 16.6 °C 1008.4 hPa Calm   1.6 km/h 97% 0 mm meteobridge W/m2
09:49 17.2 °C 16.7 °C 1008.4 hPa Calm   4.8 km/h 97% 0.25 mm meteobridge W/m2
09:54 17.3 °C 16.8 °C 1008.4 hPa Calm     97% 0.25 mm meteobridge W/m2
09:59 17.3 °C 16.8 °C 1008.7 hPa Calm   6.4 km/h 97% 0.25 mm meteobridge W/m2
10:04 17.4 °C 16.8 °C 1008.7 hPa NNW 1.4 km/h 3.2 km/h 96% 0.25 mm meteobridge W/m2
10:09 17.5 °C 16.9 °C 1008.7 hPa NW 3.2 km/h 4.8 km/h 96% 0.25 mm meteobridge W/m2
10:14 17.4 °C 16.6 °C 1008.7 hPa Calm     95% 0.25 mm meteobridge W/m2
10:19 17.5 °C 16.7 °C 1008.7 hPa Calm     95% 0.25 mm meteobridge W/m2
10:24 17.6 °C 16.8 °C 1009 hPa NW 1.4 km/h 3.2 km/h 95% 0.25 mm meteobridge W/m2
10:29 17.6 °C 16.6 °C 1009 hPa Calm     94% 0.25 mm meteobridge W/m2
10:34 17.6 °C 16.8 °C 1009 hPa Calm     95% 0.25 mm meteobridge W/m2
10:39 17.7 °C 16.9 °C 1009 hPa Calm     95% 0.51 mm meteobridge W/m2
10:44 17.6 °C 16.8 °C 1009 hPa Calm     95% 0.51 mm meteobridge W/m2
10:49 17.7 °C 17.1 °C 1009 hPa Calm     96% 0.25 mm meteobridge W/m2
10:54 17.7 °C 16.9 °C 1009 hPa Calm   4.8 km/h 95% 0.25 mm meteobridge W/m2
10:59 17.9 °C 17.4 °C 1009 hPa Calm     97% 0.25 mm meteobridge W/m2
11:04 18 °C 17.2 °C 1009 hPa Calm     95% 0.25 mm meteobridge W/m2
11:09 18 °C 17.2 °C 1009.4 hPa Calm     95% 0.25 mm meteobridge W/m2
11:14 18 °C 17.2 °C 1009.4 hPa Calm   8 km/h 95% 0.25 mm meteobridge W/m2
11:19 18.2 °C 17.4 °C 1009.4 hPa Calm     95% 0.25 mm meteobridge W/m2
11:24 18.2 °C 17.2 °C 1009.4 hPa Calm   1.6 km/h 94% 0.25 mm meteobridge W/m2
11:29 18.2 °C 16.9 °C 1009.4 hPa Calm   3.2 km/h 92% 0.25 mm meteobridge W/m2
11:34 18.3 °C 17.1 °C 1009.7 hPa NNW 1.4 km/h 3.2 km/h 93% 0.25 mm meteobridge W/m2
11:39 18.4 °C 17.1 °C 1009.4 hPa Calm   3.2 km/h 92% 0.25 mm meteobridge W/m2
11:44 18.8 °C 17.3 °C 1009.7 hPa Calm   3.2 km/h 91% 0.25 mm meteobridge W/m2
11:49 19.1 °C 17.8 °C 1009.4 hPa Calm   3.2 km/h 92% 0.25 mm meteobridge W/m2
11:54 19.2 °C 17.3 °C 1009.4 hPa Calm     89% 0.25 mm meteobridge W/m2
11:59 19.4 °C 17.5 °C 1009.4 hPa Calm     89% 0.25 mm meteobridge W/m2
12:04 19.5 °C 17.5 °C 1009.4 hPa Calm   4.8 km/h 88% 0.25 mm meteobridge W/m2
12:09 19.6 °C 18.1 °C 1009.7 hPa Calm     91% 0.25 mm meteobridge W/m2
12:14 19.6 °C 17.7 °C 1009.7 hPa NE 7.9 km/h 8 km/h 89% 0.25 mm meteobridge W/m2
12:19 19.7 °C 17.7 °C 1009.7 hPa West 1.4 km/h 4.8 km/h 88% 0.25 mm meteobridge W/m2
12:24 19.7 °C 17.5 °C 1009.7 hPa Calm   1.6 km/h 87% 0.25 mm meteobridge W/m2
12:29 19.6 °C 17.4 °C 1009.7 hPa Calm   6.4 km/h 87% 0.51 mm meteobridge W/m2
12:34 19.6 °C 17.6 °C 1009.7 hPa Calm   4.8 km/h 88% 0.51 mm meteobridge W/m2
12:39 19.5 °C 17.3 °C 1009.7 hPa Calm   6.4 km/h 87% 0.25 mm meteobridge W/m2
12:44 19.5 °C 17.1 °C 1010 hPa Calm   3.2 km/h 86% 0.25 mm meteobridge W/m2
12:49 19.8 °C 17.4 °C 1009.7 hPa NW 4.7 km/h 8 km/h 86% 0.25 mm meteobridge W/m2
12:54 20.1 °C 17.5 °C 1009.7 hPa Calm   6.4 km/h 85% 0.25 mm meteobridge W/m2
12:59 20.4 °C 17.4 °C 1009.7 hPa NW 7.9 km/h 9.7 km/h 83% 0.25 mm meteobridge W/m2
13:04 20.7 °C 17.3 °C 1009.7 hPa Calm   6.4 km/h 81% 0.25 mm meteobridge W/m2
13:09 21 °C 17 °C 1009.7 hPa Calm   6.4 km/h 78% 0.25 mm meteobridge W/m2
13:14 21.2 °C 17.6 °C 1009.7 hPa Calm   8 km/h 80% 0.25 mm meteobridge W/m2
13:19 21.2 °C 17 °C 1009.7 hPa Calm   4.8 km/h 77% 0.51 mm meteobridge W/m2
13:24 21.3 °C 17.3 °C 1009.7 hPa Calm   1.6 km/h 78% 0.51 mm meteobridge W/m2
13:29 21.6 °C 17.4 °C 1009.7 hPa WNW 3.2 km/h 4.8 km/h 77% 0.25 mm meteobridge W/m2
13:34 21.7 °C 17.5 °C 1009.7 hPa North 1.4 km/h 3.2 km/h 77% 0.25 mm meteobridge W/m2
13:39 21.8 °C 17.2 °C 1009.7 hPa Calm   6.4 km/h 75% 0.25 mm meteobridge W/m2
13:44 21.9 °C 17.1 °C 1009.7 hPa West 1.4 km/h 6.4 km/h 74% 0.25 mm meteobridge W/m2
13:49 22 °C 17.2 °C 1009.4 hPa WSW 3.2 km/h 11.3 km/h 74% 0.51 mm meteobridge W/m2
13:54 22.2 °C 17.3 °C 1009.4 hPa NNE 7.9 km/h 9.7 km/h 74% 0.51 mm meteobridge W/m2
13:59 22.2 °C 16.2 °C 1009.7 hPa Calm   11.3 km/h 69% 0.51 mm meteobridge W/m2
14:04 22.3 °C 16.8 °C 1009.7 hPa Calm   4.8 km/h 71% 0.51 mm meteobridge W/m2
14:09 22.2 °C 16.7 °C 1009.7 hPa Calm   11.3 km/h 71% 0.51 mm meteobridge W/m2
14:14 22.2 °C 16.9 °C 1009.7 hPa Calm   4.8 km/h 72% 0.76 mm meteobridge W/m2
14:19 22.2 °C 16.2 °C 1009.7 hPa North 1.4 km/h 9.7 km/h 69% 0.51 mm meteobridge W/m2
14:24 22.3 °C 16.1 °C 1009.7 hPa NW 1.4 km/h 4.8 km/h 68% 0.51 mm meteobridge W/m2
14:29 22.3 °C 16.6 °C 1009.7 hPa Calm   12.9 km/h 70% 0.51 mm meteobridge W/m2
14:34 22.3 °C 16.3 °C 1009.7 hPa Calm   4.8 km/h 69% 0.51 mm meteobridge W/m2
14:39 22.3 °C 16.1 °C 1009.4 hPa Calm   6.4 km/h 68% 0.51 mm meteobridge W/m2
14:44 22.3 °C 17.2 °C 1009.4 hPa East 1.4 km/h 1.6 km/h 73% 0.51 mm meteobridge W/m2
14:49 22.4 °C 16.7 °C 1009.4 hPa SSW 3.2 km/h 6.4 km/h 70% 0.25 mm meteobridge W/m2
14:54 22.6 °C 16.4 °C 1009.4 hPa WNW 6.4 km/h 8 km/h 68% 0.25 mm meteobridge W/m2
14:59 22.7 °C 16.3 °C 1009 hPa Calm   6.4 km/h 67% 0.51 mm meteobridge W/m2
15:04 22.7 °C 16 °C 1009 hPa NE 3.2 km/h 11.3 km/h 66% 0.51 mm meteobridge W/m2
15:09 22.8 °C 15.9 °C 1009 hPa Calm   4.8 km/h 65% 0.51 mm meteobridge W/m2
15:14 22.9 °C 15.7 °C 1009 hPa NNE 1.4 km/h 11.3 km/h 64% 0.25 mm meteobridge W/m2
15:19 22.9 °C 15.7 °C 1009 hPa NNE 3.2 km/h 11.3 km/h 64% 0.25 mm meteobridge W/m2
15:24 22.9 °C 15.7 °C 1009.4 hPa Calm   4.8 km/h 64% 0.25 mm meteobridge W/m2
15:29 22.8 °C 16.4 °C 1009 hPa Calm     67% 0.25 mm meteobridge W/m2
15:34 22.8 °C 15.9 °C 1009.4 hPa Calm   8 km/h 65% 0.25 mm meteobridge W/m2
15:39 22.9 °C 15.7 °C 1009.4 hPa Calm   9.7 km/h 64% 0.25 mm meteobridge W/m2
15:44 22.9 °C 16 °C 1009.4 hPa NW 6.4 km/h 9.7 km/h 65% 0.25 mm meteobridge W/m2
15:49 22.9 °C 16 °C 1009 hPa West 6.4 km/h 8 km/h 65% 0.25 mm meteobridge W/m2
15:54 23 °C 15.8 °C 1009 hPa Calm   3.2 km/h 64% 0.51 mm meteobridge W/m2
15:59 23.1 °C 16.4 °C 1009 hPa SE 1.4 km/h 6.4 km/h 66% 0.25 mm meteobridge W/m2
16:04 23 °C 16.1 °C 1009 hPa North 1.4 km/h 11.3 km/h 65% 0.25 mm meteobridge W/m2
16:09 22.9 °C 16 °C 1009.4 hPa Calm   4.8 km/h 65% 0.25 mm meteobridge W/m2
16:14 22.9 °C 16 °C 1009.4 hPa NNE 1.4 km/h 6.4 km/h 65% 0.25 mm meteobridge W/m2
16:19 22.9 °C 16 °C 1009.4 hPa Calm   1.6 km/h 65% 0.25 mm meteobridge W/m2
16:24 22.9 °C 15.5 °C 1009.4 hPa North 7.9 km/h 8 km/h 63% 0.25 mm meteobridge W/m2
16:29 23.1 °C 16.2 °C 1009.4 hPa NNE 1.4 km/h 3.2 km/h 65% 0.25 mm meteobridge W/m2
16:34 23.2 °C 16.3 °C 1009.4 hPa Calm   6.4 km/h 65% 0.25 mm meteobridge W/m2
16:39 23.1 °C 16.6 °C 1009.4 hPa Calm   8 km/h 67% 0.25 mm meteobridge W/m2
16:44 23.1 °C 16.9 °C 1009.4 hPa Calm   8 km/h 68% 0.25 mm meteobridge W/m2
16:49 22.8 °C 16.1 °C 1009.4 hPa Calm   3.2 km/h 66% 0.25 mm meteobridge W/m2
16:54 22.8 °C 16.4 °C 1009.4 hPa Calm   4.8 km/h 67% 0 mm meteobridge W/m2
16:59 22.6 °C 15.7 °C 1009 hPa Calm   17.7 km/h 65% 0 mm meteobridge W/m2
17:04 22.6 °C 16.2 °C 1009 hPa West 1.4 km/h 4.8 km/h 67% 0 mm meteobridge W/m2
17:09 22.6 °C 16.2 °C 1009.4 hPa NW 11.1 km/h 14.5 km/h 67% 0.25 mm meteobridge W/m2
17:14 22.4 °C 16.7 °C 1009.4 hPa Calm   9.7 km/h 70% 0.25 mm meteobridge W/m2
17:19 22.3 °C 16.3 °C 1009.4 hPa Calm   9.7 km/h 69% 0.25 mm meteobridge W/m2
17:24 22.3 °C 16.1 °C 1009.4 hPa Calm   8 km/h 68% 0.25 mm meteobridge W/m2
17:29 22.2 °C 16 °C 1009 hPa NW 1.4 km/h 9.7 km/h 68% 0.25 mm meteobridge W/m2
17:34 22.1 °C 16.6 °C 1009.4 hPa Calm   8 km/h 71% 0.25 mm meteobridge W/m2
17:39 22.1 °C 16.8 °C 1009.4 hPa Calm     72% 0.25 mm meteobridge W/m2
17:44 21.9 °C 16.6 °C 1009.4 hPa NNW 1.4 km/h 3.2 km/h 72% 0.25 mm meteobridge W/m2
17:49 21.9 °C 16.2 °C 1009.7 hPa SSE 3.2 km/h 3.2 km/h 70% 0.25 mm meteobridge W/m2
17:54 21.8 °C 15.9 °C 1009.7 hPa NW 7.9 km/h 16.1 km/h 69% 0.25 mm meteobridge W/m2
17:59 21.7 °C 15.8 °C 1009.7 hPa WNW 1.4 km/h 9.7 km/h 69% 0.25 mm meteobridge W/m2
18:04 21.6 °C 15.7 °C 1009.7 hPa WNW 1.4 km/h 9.7 km/h 69% 0.25 mm meteobridge W/m2
18:09 21.6 °C 16.1 °C 1009.7 hPa Calm   4.8 km/h 71% 0 mm meteobridge W/m2
18:14 21.4 °C 15.5 °C 1009.7 hPa North 6.4 km/h 6.4 km/h 69% 0 mm meteobridge W/m2
18:19 21.3 °C 15.4 °C 1010 hPa North 6.4 km/h 9.7 km/h 69% 0 mm meteobridge W/m2
18:24 21.1 °C 15.6 °C 1010 hPa Calm   8 km/h 71% 0 mm meteobridge W/m2
18:29 20.9 °C 15.2 °C 1010 hPa West 3.2 km/h 8 km/h 70% 0 mm meteobridge W/m2
18:34 20.7 °C 15.5 °C 1010 hPa North 3.2 km/h 4.8 km/h 72% 0.25 mm meteobridge W/m2
18:39 20.6 °C 15.8 °C 1010 hPa Calm   4.8 km/h 74% 0.25 mm meteobridge W/m2
18:44 20.5 °C 15.3 °C 1010.4 hPa Calm   1.6 km/h 72% 0.25 mm meteobridge W/m2
18:49 20.3 °C 15.3 °C 1010.4 hPa SSW 1.4 km/h 1.6 km/h 73% 0.25 mm meteobridge W/m2
18:54 20.2 °C 15.4 °C 1010.4 hPa Calm   3.2 km/h 74% 0.25 mm meteobridge W/m2
18:59 20.1 °C 15.7 °C 1010.4 hPa Calm   1.6 km/h 76% 0.25 mm meteobridge W/m2
19:04 19.9 °C 15.1 °C 1010.4 hPa Calm   6.4 km/h 74% 0.25 mm meteobridge W/m2
19:09 19.8 °C 15.2 °C 1010.4 hPa Calm   3.2 km/h 75% 0.25 mm meteobridge W/m2
19:14 19.7 °C 15.1 °C 1010.4 hPa Calm   3.2 km/h 75% 0.25 mm meteobridge W/m2
19:19 19.6 °C 15.3 °C 1010.4 hPa NW 3.2 km/h 4.8 km/h 76% 0.25 mm meteobridge W/m2
19:24 19.4 °C 15.3 °C 1010.4 hPa NW 6.4 km/h 6.4 km/h 77% 0.25 mm meteobridge W/m2
19:29 19.3 °C 15.2 °C 1010.4 hPa Calm     77% 0.25 mm meteobridge W/m2
19:34 19.1 °C 15.2 °C 1010.4 hPa Calm   3.2 km/h 78% 0 mm meteobridge W/m2
19:39 18.9 °C 15 °C 1010.4 hPa Calm   1.6 km/h 78% 0 mm meteobridge W/m2
19:44 18.8 °C 14.9 °C 1010.4 hPa Calm   3.2 km/h 78% 0 mm meteobridge W/m2
19:49 18.7 °C 15 °C 1010.4 hPa Calm     79% 0 mm meteobridge W/m2
19:54 18.6 °C 15.3 °C 1010.7 hPa Calm   1.6 km/h 81% 0 mm meteobridge W/m2
19:59 18.5 °C 15 °C 1010.4 hPa Calm     80% 0 mm meteobridge W/m2
20:04 18.4 °C 14.9 °C 1010.7 hPa Calm   4.8 km/h 80% 0 mm meteobridge W/m2
20:09 18.3 °C 14.8 °C 1010.7 hPa Calm     80% 0 mm meteobridge W/m2
20:14 18.2 °C 14.9 °C 1010.7 hPa Calm     81% 0 mm meteobridge W/m2
20:19 18.1 °C 15.2 °C 1010.7 hPa Calm     83% 0 mm meteobridge W/m2
20:24 17.9 °C 15 °C 1011.1 hPa Calm     83% 0 mm meteobridge W/m2
20:29 17.7 °C 14.8 °C 1011.1 hPa Calm     83% 0 mm meteobridge W/m2
20:34 17.6 °C 14.9 °C 1011.4 hPa Calm     84% 0 mm meteobridge W/m2
20:39 17.4 °C 14.7 °C 1011.4 hPa Calm     84% 0 mm meteobridge W/m2
20:44 17.2 °C 14.7 °C 1011.4 hPa Calm     85% 0 mm meteobridge W/m2
20:49 17.1 °C 14.6 °C 1011.4 hPa Calm     85% 0 mm meteobridge W/m2
20:54 16.9 °C 14.5 °C 1011.4 hPa Calm     86% 0 mm meteobridge W/m2
20:59 16.8 °C 14.6 °C 1011.4 hPa Calm     87% 0 mm meteobridge W/m2
21:04 16.6 °C 14.6 °C 1011.4 hPa Calm     88% 0 mm meteobridge W/m2
21:09 16.3 °C 14.5 °C 1011.7 hPa Calm     89% 0 mm meteobridge W/m2
21:14 16.1 °C 14.5 °C 1011.7 hPa Calm   1.6 km/h 90% 0.25 mm meteobridge W/m2
21:19 15.9 °C 14.3 °C 1011.7 hPa Calm     90% 0.25 mm meteobridge W/m2
21:24 15.8 °C 14.2 °C 1011.7 hPa Calm     90% 0.25 mm meteobridge W/m2
21:29 15.7 °C 14.2 °C 1011.7 hPa Calm     91% 0.25 mm meteobridge W/m2
21:34 15.7 °C 14.2 °C 1012.1 hPa Calm     91% 0.25 mm meteobridge W/m2
21:39 15.6 °C 14.3 °C 1012.1 hPa Calm     92% 0.25 mm meteobridge W/m2
21:44 15.5 °C 14.2 °C 1012.1 hPa Calm     92% 0.25 mm meteobridge W/m2
21:49 15.4 °C 14.1 °C 1012.1 hPa Calm     92% 0.25 mm meteobridge W/m2
21:54 15.3 °C 14.2 °C 1012.1 hPa Calm     93% 0.25 mm meteobridge W/m2
21:59 15.2 °C 14.1 °C 1012.1 hPa Calm     93% 0.25 mm meteobridge W/m2
22:04 15.2 °C 14.1 °C 1012.1 hPa Calm     93% 0.25 mm meteobridge W/m2
22:09 15.1 °C 14 °C 1012.4 hPa Calm     93% 0.25 mm meteobridge W/m2
22:14 15.1 °C 14 °C 1012.4 hPa Calm     93% 0 mm meteobridge W/m2
22:19 14.9 °C 13.8 °C 1012.4 hPa Calm     93% 0 mm meteobridge W/m2
22:24 14.8 °C 13.7 °C 1012.4 hPa Calm     93% 0 mm meteobridge W/m2
22:29 14.7 °C 13.6 °C 1012.4 hPa Calm     93% 0 mm meteobridge W/m2
22:34 14.7 °C 13.6 °C 1012.4 hPa Calm     93% 0 mm meteobridge W/m2
22:39 14.6 °C 13.5 °C 1012.4 hPa Calm     93% 0 mm meteobridge W/m2
22:44 14.4 °C 13.4 °C 1012.4 hPa Calm     94% 0 mm meteobridge W/m2
22:49 14.3 °C 13.3 °C 1012.4 hPa Calm     94% 0 mm meteobridge W/m2
22:54 14.2 °C 13.2 °C 1012.8 hPa Calm     94% 0 mm meteobridge W/m2
22:59 14.1 °C 13.1 °C 1012.8 hPa Calm     94% 0 mm meteobridge W/m2
23:04 14 °C 13 °C 1012.8 hPa Calm     94% 0 mm meteobridge W/m2
23:09 13.9 °C 12.9 °C 1012.8 hPa Calm     94% 0 mm meteobridge W/m2
23:14 13.8 °C 12.9 °C 1012.8 hPa Calm     94% 0 mm meteobridge W/m2
23:19 13.8 °C 13 °C 1012.8 hPa Calm     95% 0 mm meteobridge W/m2
23:24 13.7 °C 12.9 °C 1012.8 hPa Calm     95% 0 mm meteobridge W/m2
23:29 13.6 °C 12.7 °C 1012.8 hPa Calm     94% 0 mm meteobridge W/m2
23:34 13.5 °C 12.6 °C 1012.8 hPa Calm     94% 0 mm meteobridge W/m2
23:39 13.4 °C 12.6 °C 1012.8 hPa Calm     95% 0 mm meteobridge W/m2
23:44 13.4 °C 12.6 °C 1012.8 hPa Calm     95% 0 mm meteobridge W/m2
23:49 13.3 °C 12.5 °C 1012.8 hPa Calm     95% 0 mm meteobridge W/m2
23:54 13.2 °C 12.4 °C 1012.8 hPa Calm     95% 0 mm meteobridge W/m2
23:59 13.1 °C 12.3 °C 1012.8 hPa Calm     95% 0 mm meteobridge W/m2
EllijayWeather
Compliments of Weather Underground - 2.5 mb